createdAt,value
2019-05-09T00:02:15.586Z,64.12
2019-05-09T00:04:45.536Z,63.52
2019-05-09T00:07:16.000Z,63.58
2019-05-09T00:09:46.157Z,63.58
2019-05-09T00:12:15.593Z,63.63
2019-05-09T00:14:45.355Z,63.97
2019-05-09T00:17:15.612Z,64.35
2019-05-09T00:19:45.616Z,64.48
2019-05-09T00:22:15.354Z,65.26
2019-05-09T00:24:46.084Z,65.41
2019-05-09T00:29:49.750Z,65.92
2019-05-09T00:32:26.604Z,65.61
2019-05-09T00:35:14.129Z,66.34
2019-05-09T00:38:00.474Z,66.08
2019-05-09T00:40:30.454Z,65.19
2019-05-09T00:43:00.470Z,65.32
2019-05-09T00:45:47.898Z,64.58
2019-05-09T00:48:19.547Z,63.72
2019-05-09T00:50:49.336Z,63.07
2019-05-09T00:53:19.181Z,63.66
2019-05-09T00:55:48.995Z,63.86
2019-05-09T00:58:18.503Z,65.69
2019-05-09T01:00:48.140Z,67.02
2019-05-09T01:03:17.580Z,66.78
2019-05-09T01:05:47.645Z,67.18
2019-05-09T01:08:17.335Z,66.46
2019-05-09T01:10:46.863Z,67.51
2019-05-09T01:13:16.305Z,68.58
2019-05-09T01:15:45.758Z,68.55
2019-05-09T01:18:15.203Z,67.97
2019-05-09T01:20:44.716Z,68.92
2019-05-09T01:23:14.432Z,69.71
2019-05-09T01:25:43.877Z,70.46
2019-05-09T01:28:14.004Z,72.07
2019-05-09T01:30:43.938Z,71.91
2019-05-09T01:33:15.504Z,72.91
2019-05-09T01:35:44.962Z,72.84
2019-05-09T01:38:14.463Z,75.01
2019-05-09T01:40:44.031Z,76.43
2019-05-09T01:43:13.973Z,77.30
2019-05-09T01:45:47.037Z,78.47
2019-05-09T01:48:14.950Z,79.10
2019-05-09T01:50:44.397Z,80.26
2019-05-09T01:53:15.485Z,81.52
2019-05-09T01:56:00.790Z,81.80
2019-05-09T01:58:34.184Z,82.14
2019-05-09T02:01:05.501Z,82.38
2019-05-09T02:03:35.892Z,82.10
2019-05-09T02:06:05.678Z,81.11
2019-05-09T02:08:35.119Z,82.63
2019-05-09T02:11:04.970Z,82.62
2019-05-09T02:13:34.780Z,82.64
2019-05-09T02:16:23.450Z,83.31
2019-05-09T02:18:55.005Z,83.73
2019-05-09T02:21:24.695Z,82.26
2019-05-09T02:23:55.091Z,79.76
2019-05-09T02:26:24.823Z,79.60
2019-05-09T02:28:54.270Z,78.91
2019-05-09T02:31:24.722Z,78.81
2019-05-09T02:33:54.787Z,78.32
2019-05-09T02:36:24.233Z,80.45
2019-05-09T02:38:53.673Z,81.72
2019-05-09T02:41:23.187Z,80.77
2019-05-09T02:43:52.639Z,79.11
2019-05-09T02:46:24.046Z,80.83
2019-05-09T02:48:53.479Z,81.48
2019-05-09T02:51:23.278Z,81.38
2019-05-09T02:53:52.712Z,81.65
2019-05-09T02:56:22.405Z,81.87
2019-05-09T02:59:11.787Z,81.44
2019-05-09T03:01:42.868Z,80.01
2019-05-09T03:04:12.543Z,79.97
2019-05-09T03:06:41.995Z,78.89
2019-05-09T03:09:11.427Z,78.65
2019-05-09T03:11:40.876Z,77.93
2019-05-09T03:14:11.196Z,78.51
2019-05-09T03:16:40.646Z,78.41
2019-05-09T03:19:10.089Z,78.70
2019-05-09T03:21:41.501Z,78.33
2019-05-09T03:24:10.926Z,78.35
2019-05-09T03:26:42.016Z,78.48
2019-05-09T03:29:13.093Z,78.36
2019-05-09T03:31:43.645Z,78.50
2019-05-09T03:34:13.093Z,78.21
2019-05-09T03:36:43.265Z,78.43
2019-05-09T03:39:12.697Z,78.77
2019-05-09T03:41:42.441Z,79.10
2019-05-09T03:44:11.879Z,79.90
2019-05-09T03:46:47.634Z,80.44
2019-05-09T03:49:18.778Z,80.64
2019-05-09T03:51:48.372Z,80.61
2019-05-09T03:54:18.384Z,80.11
2019-05-09T03:56:52.633Z,81.41
2019-05-09T03:59:22.852Z,80.80
2019-05-09T04:01:52.303Z,80.78
2019-05-09T04:04:21.738Z,80.81
2019-05-09T04:06:51.551Z,80.31
2019-05-09T04:09:21.252Z,80.13
2019-05-09T04:11:50.701Z,80.27
2019-05-09T04:14:21.793Z,79.48
2019-05-09T04:16:51.232Z,79.49
2019-05-09T04:19:20.664Z,79.87
2019-05-09T04:21:50.119Z,79.70
2019-05-09T04:24:19.560Z,79.61
2019-05-09T04:26:53.533Z,78.87
2019-05-09T04:29:22.965Z,78.23
2019-05-09T04:31:52.433Z,77.57
2019-05-09T04:34:21.874Z,78.14
2019-05-09T04:36:51.647Z,78.63
2019-05-09T04:39:23.662Z,78.80
2019-05-09T04:41:55.078Z,79.47
2019-05-09T04:44:25.272Z,79.99
2019-05-09T04:47:01.662Z,80.40
2019-05-09T04:49:29.656Z,80.81
2019-05-09T04:51:58.435Z,79.99
2019-05-09T04:54:28.135Z,80.12
2019-05-09T04:56:57.671Z,79.81
2019-05-09T04:59:28.379Z,79.52
2019-05-09T05:02:18.123Z,79.61
2019-05-09T05:04:47.943Z,79.63
2019-05-09T05:07:18.097Z,79.47
2019-05-09T05:09:48.394Z,79.74
2019-05-09T05:12:18.753Z,80.16
2019-05-09T05:14:48.228Z,79.98
2019-05-09T05:17:18.077Z,79.62
2019-05-09T05:19:48.443Z,78.28
2019-05-09T05:22:22.276Z,78.36
2019-05-09T05:24:55.840Z,77.48
2019-05-09T05:27:24.521Z,76.42
2019-05-09T05:29:53.955Z,76.54
2019-05-09T05:32:25.046Z,76.38
2019-05-09T05:34:58.710Z,75.95
2019-05-09T05:37:28.212Z,75.11
2019-05-09T05:39:58.319Z,75.11
2019-05-09T05:42:28.431Z,73.35
2019-05-09T05:44:58.409Z,72.79
2019-05-09T05:47:29.525Z,71.91
2019-05-09T05:49:58.983Z,71.90
2019-05-09T05:52:28.409Z,71.01
2019-05-09T05:54:58.260Z,69.53
2019-05-09T05:57:28.105Z,70.53
2019-05-09T05:59:58.493Z,70.53
2019-05-09T06:02:28.567Z,68.59
2019-05-09T06:04:58.084Z,66.14
2019-05-09T06:07:28.515Z,66.14
2019-05-09T06:09:58.051Z,65.22
2019-05-09T06:12:27.777Z,65.78
2019-05-09T06:14:58.168Z,65.69
2019-05-09T06:17:28.638Z,65.49
2019-05-09T06:19:59.077Z,65.07
2019-05-09T06:22:28.633Z,65.99
2019-05-09T06:24:58.366Z,65.11
2019-05-09T06:27:28.232Z,64.46
2019-05-09T06:29:58.285Z,63.49
2019-05-09T06:32:28.053Z,63.29
2019-05-09T06:34:57.969Z,63.29
2019-05-09T06:37:27.822Z,64.05
2019-05-09T06:39:58.284Z,63.35
2019-05-09T06:42:28.587Z,63.35
2019-05-09T06:45:07.739Z,62.59
2019-05-09T06:47:39.431Z,62.65
2019-05-09T06:50:10.521Z,61.71
2019-05-09T06:52:39.955Z,62.27
2019-05-09T06:55:09.485Z,61.62
2019-05-09T06:57:42.829Z,60.69
2019-05-09T07:00:12.717Z,60.28
2019-05-09T07:02:47.857Z,58.56
2019-05-09T07:05:25.056Z,58.36
2019-05-09T07:08:05.127Z,57.43
2019-05-09T07:10:34.874Z,57.04
2019-05-09T07:13:04.387Z,58.25
2019-05-09T07:15:33.839Z,58.11
2019-05-09T07:18:03.287Z,57.93
2019-05-09T07:20:33.209Z,57.93
2019-05-09T07:23:02.642Z,56.92
2019-05-09T07:25:37.773Z,56.82
2019-05-09T07:28:07.745Z,57.47
2019-05-09T07:30:41.530Z,56.65
2019-05-09T07:33:30.642Z,56.65
2019-05-09T07:36:01.853Z,56.56
2019-05-09T07:38:32.315Z,56.63
2019-05-09T07:41:02.113Z,54.67
2019-05-09T07:43:31.831Z,55.14
2019-05-09T07:46:04.649Z,55.14
2019-05-09T07:48:35.135Z,54.56
2019-05-09T07:51:04.647Z,55.18
2019-05-09T07:53:34.253Z,54.85
2019-05-09T07:56:03.702Z,55.38
2019-05-09T07:58:33.137Z,55.38
2019-05-09T08:01:02.596Z,54.26
2019-05-09T08:03:32.303Z,54.05
2019-05-09T08:06:01.757Z,53.47
2019-05-09T08:08:31.191Z,53.72
2019-05-09T08:11:01.002Z,53.56
2019-05-09T08:13:30.452Z,53.44
2019-05-09T08:15:59.909Z,53.30
2019-05-09T08:18:29.344Z,52.38
2019-05-09T08:20:58.792Z,51.04
2019-05-09T08:23:28.221Z,52.19
2019-05-09T08:25:58.088Z,51.86
2019-05-09T08:28:28.135Z,52.43
2019-05-09T08:30:58.570Z,52.27
2019-05-09T08:33:28.848Z,52.64
2019-05-09T08:35:58.674Z,51.72
2019-05-09T08:38:28.551Z,50.74
2019-05-09T08:41:09.098Z,49.79
2019-05-09T08:43:39.437Z,49.63
2019-05-09T08:46:09.139Z,49.98
2019-05-09T08:48:38.591Z,49.73
2019-05-09T08:51:09.730Z,49.34
2019-05-09T08:53:39.167Z,48.86
2019-05-09T08:56:12.491Z,48.80
2019-05-09T08:58:39.749Z,48.52
2019-05-09T09:01:11.053Z,47.97
2019-05-09T09:03:40.380Z,46.89
2019-05-09T09:06:09.814Z,47.12
2019-05-09T09:08:39.297Z,48.13
2019-05-09T09:11:09.022Z,47.82
2019-05-09T09:13:38.799Z,47.71
2019-05-09T09:16:18.458Z,48.93
2019-05-09T09:18:39.417Z,47.32
2019-05-09T09:21:08.849Z,47.56
2019-05-09T09:23:44.231Z,48.05
2019-05-09T09:26:09.421Z,46.49
2019-05-09T09:28:38.879Z,46.19
2019-05-09T09:31:08.402Z,45.37
2019-05-09T09:33:37.891Z,44.73
2019-05-09T09:36:08.737Z,43.50
2019-05-09T09:38:38.756Z,42.92
2019-05-09T09:41:08.194Z,42.58
2019-05-09T09:43:38.386Z,42.42
2019-05-09T09:46:14.339Z,43.43
2019-05-09T09:48:39.855Z,41.43
2019-05-09T09:51:09.571Z,40.28
2019-05-09T09:53:39.372Z,39.54
2019-05-09T09:56:08.937Z,39.47
2019-05-09T09:58:38.331Z,39.67
2019-05-09T10:01:21.827Z,40.60
2019-05-09T10:03:52.915Z,39.45
2019-05-09T10:06:22.347Z,38.91
2019-05-09T10:08:51.789Z,38.37
2019-05-09T10:11:21.224Z,38.56
2019-05-09T10:13:52.051Z,38.50
2019-05-09T10:16:29.154Z,38.05
2019-05-09T10:19:10.846Z,39.07
2019-05-09T10:21:45.299Z,38.59
2019-05-09T10:24:17.360Z,38.91
2019-05-09T10:27:04.255Z,38.95
2019-05-09T10:29:34.244Z,38.58
2019-05-09T10:32:08.797Z,36.91
2019-05-09T10:34:37.881Z,37.69
2019-05-09T10:37:07.841Z,37.87
2019-05-09T10:39:38.146Z,39.92
2019-05-09T10:42:25.548Z,40.12
2019-05-09T10:44:59.390Z,41.01
2019-05-09T10:47:34.058Z,39.98
2019-05-09T10:50:05.057Z,40.85
2019-05-09T10:52:34.557Z,41.62
2019-05-09T10:55:04.966Z,40.58
2019-05-09T10:57:34.390Z,38.59
2019-05-09T11:00:08.695Z,38.58
2019-05-09T11:02:37.520Z,37.75
2019-05-09T11:05:08.372Z,37.22
2019-05-09T11:07:38.181Z,38.26
2019-05-09T11:10:24.129Z,36.43
2019-05-09T11:12:38.876Z,35.41
2019-05-09T11:15:09.215Z,33.42
2019-05-09T11:17:39.043Z,34.88
2019-05-09T11:20:09.054Z,37.90
2019-05-09T11:22:38.765Z,40.10
2019-05-09T11:25:08.832Z,31.93
2019-05-09T11:27:38.896Z,32.95
2019-05-09T11:30:08.602Z,35.20
2019-05-09T11:32:38.708Z,37.02
2019-05-09T11:37:39.348Z,38.47
2019-05-09T11:40:08.796Z,40.54
2019-05-09T11:41:02.070Z,37.37
2019-05-09T11:42:38.671Z,39.77
2019-05-09T11:45:08.131Z,38.32
2019-05-09T11:47:45.449Z,35.34
2019-05-09T11:50:09.082Z,36.54
2019-05-09T11:52:38.524Z,37.39
2019-05-09T11:55:27.459Z,38.47
2019-05-09T11:57:39.718Z,39.58
2019-05-09T12:00:10.407Z,41.62
2019-05-09T12:02:39.843Z,40.48
2019-05-09T12:05:09.361Z,40.62
2019-05-09T12:07:38.794Z,39.68
2019-05-09T12:10:08.631Z,39.26
2019-05-09T12:12:39.033Z,37.94
2019-05-09T12:15:09.211Z,36.63
2019-05-09T12:17:50.918Z,36.83
2019-05-09T12:20:13.471Z,37.42
2019-05-09T12:22:41.777Z,39.64
2019-05-09T12:25:11.508Z,38.68
2019-05-09T12:27:40.950Z,37.50
2019-05-09T12:30:11.066Z,36.20
2019-05-09T12:32:40.510Z,36.89
2019-05-09T12:35:10.030Z,37.36
2019-05-09T12:37:39.587Z,38.60
2019-05-09T12:40:09.500Z,39.55
2019-05-09T12:42:39.541Z,38.98
2019-05-09T12:45:09.473Z,40.14
2019-05-09T12:47:39.844Z,39.04
2019-05-09T12:50:10.178Z,38.66
2019-05-09T12:52:39.684Z,38.48
2019-05-09T12:55:12.680Z,37.02
2019-05-09T12:57:40.437Z,34.99
2019-05-09T13:00:10.427Z,33.53
2019-05-09T13:02:40.036Z,32.93
2019-05-09T13:05:09.805Z,30.82
2019-05-09T13:07:42.390Z,31.96
2019-05-09T13:12:39.122Z,34.03
2019-05-09T13:15:09.060Z,36.54
2019-05-09T13:17:40.283Z,33.84
2019-05-09T13:20:10.734Z,31.93
2019-05-09T13:22:40.171Z,30.78
2019-05-09T13:25:09.830Z,31.12
2019-05-09T13:27:39.327Z,31.25
2019-05-09T13:30:09.491Z,34.47
2019-05-09T13:32:38.931Z,36.24
2019-05-09T13:35:08.614Z,38.78
2019-05-09T13:37:38.439Z,39.81
2019-05-09T13:40:08.563Z,37.15
2019-05-09T13:42:39.633Z,36.58
2019-05-09T13:45:09.417Z,35.39
2019-05-09T13:47:38.854Z,33.67
2019-05-09T13:50:09.105Z,34.40
2019-05-09T13:52:38.581Z,35.91
2019-05-09T13:55:08.826Z,36.80
2019-05-09T13:57:39.011Z,38.02
2019-05-09T14:00:09.255Z,37.55
2019-05-09T14:02:38.757Z,37.50
2019-05-09T14:05:09.325Z,37.03
2019-05-09T14:07:39.003Z,35.67
2019-05-09T14:10:10.412Z,36.29
2019-05-09T14:12:40.011Z,35.26
2019-05-09T14:15:09.858Z,36.15
2019-05-09T14:17:49.267Z,33.41
2019-05-09T14:20:10.912Z,30.55
2019-05-09T14:22:40.324Z,32.09
2019-05-09T14:25:11.570Z,32.01
2019-05-09T14:27:40.954Z,36.10
2019-05-09T14:30:10.577Z,35.53
2019-05-09T14:32:40.468Z,37.95
2019-05-09T14:35:10.598Z,38.42
2019-05-09T14:37:40.109Z,38.28
2019-05-09T14:40:10.476Z,39.09
2019-05-09T14:42:40.699Z,38.59
2019-05-09T14:45:10.884Z,37.86
2019-05-09T14:47:42.467Z,37.49
2019-05-09T14:50:11.666Z,36.10
2019-05-09T14:52:41.100Z,35.21
2019-05-09T14:55:10.605Z,35.32
2019-05-09T14:57:40.056Z,35.02
2019-05-09T15:00:10.239Z,34.41
2019-05-09T15:02:39.691Z,34.54
2019-05-09T15:05:09.750Z,34.85
2019-05-09T15:07:39.508Z,35.36
2019-05-09T15:10:09.182Z,36.44
2019-05-09T15:12:39.243Z,36.47
2019-05-09T15:15:09.414Z,36.97
2019-05-09T15:17:38.864Z,36.67
2019-05-09T15:20:08.942Z,33.55
2019-05-09T15:22:38.937Z,33.20
2019-05-09T15:25:10.418Z,32.18
2019-05-09T15:27:39.866Z,30.94
2019-05-09T15:30:11.229Z,30.26
2019-05-09T15:32:40.703Z,30.94
2019-05-09T15:35:10.312Z,30.31
2019-05-09T15:37:41.388Z,31.07
2019-05-09T15:40:11.903Z,30.00
2019-05-09T15:42:41.482Z,30.29
2019-05-09T15:45:10.999Z,30.55
2019-05-09T15:47:41.372Z,31.48
2019-05-09T15:50:19.314Z,32.73
2019-05-09T15:52:43.107Z,30.97
2019-05-09T15:55:12.618Z,30.23
2019-05-09T15:57:42.114Z,31.45
2019-05-09T16:00:14.508Z,30.36
2019-05-09T16:02:43.968Z,31.59
2019-05-09T16:05:13.402Z,32.47
2019-05-09T16:07:43.175Z,32.69
2019-05-09T16:10:13.289Z,32.49
2019-05-09T16:12:43.014Z,32.78
2019-05-09T16:15:12.730Z,32.28
2019-05-09T16:17:42.180Z,32.14
2019-05-09T16:20:11.765Z,32.38
2019-05-09T16:22:41.232Z,32.01
2019-05-09T16:25:10.750Z,31.97
2019-05-09T16:27:40.659Z,31.95
2019-05-09T16:30:10.262Z,32.28
2019-05-09T16:32:39.717Z,32.37
2019-05-09T16:35:09.335Z,31.97
2019-05-09T16:37:57.394Z,31.90
2019-05-09T16:40:09.935Z,32.69
2019-05-09T16:42:39.397Z,33.02
2019-05-09T16:45:09.755Z,32.68
2019-05-09T16:47:39.206Z,32.83
2019-05-09T16:50:12.118Z,34.11
2019-05-09T16:52:43.583Z,33.69
2019-05-09T16:55:13.307Z,34.23
2019-05-09T16:57:43.644Z,34.96
2019-05-09T17:00:18.395Z,35.04
2019-05-09T17:02:48.275Z,35.83
2019-05-09T17:05:18.067Z,35.79
2019-05-09T17:07:47.704Z,35.94
2019-05-09T17:10:17.834Z,37.03
2019-05-09T17:12:47.924Z,36.72
2019-05-09T17:15:19.070Z,37.33
2019-05-09T17:17:48.518Z,38.07
2019-05-09T17:20:19.609Z,37.53
2019-05-09T17:23:11.707Z,37.39
2019-05-09T17:25:38.478Z,37.81
2019-05-09T17:28:08.283Z,39.07
2019-05-09T17:30:38.523Z,39.79
2019-05-09T17:33:08.111Z,40.34
2019-05-09T17:35:38.625Z,40.73
2019-05-09T17:38:08.781Z,41.52
2019-05-09T17:40:39.325Z,41.35
2019-05-09T17:43:09.311Z,41.61
2019-05-09T17:45:41.916Z,40.15
2019-05-09T17:48:10.290Z,40.30
2019-05-09T17:50:40.101Z,40.42
2019-05-09T17:53:09.538Z,40.55
2019-05-09T17:55:38.983Z,40.92
2019-05-09T17:58:09.072Z,41.18
2019-05-09T18:00:38.550Z,41.79
2019-05-09T18:03:07.991Z,44.16
2019-05-09T18:05:38.951Z,44.30
2019-05-09T18:08:08.889Z,45.23
2019-05-09T18:10:38.360Z,44.51
2019-05-09T18:13:08.174Z,46.10
2019-05-09T18:15:38.113Z,43.10
2019-05-09T18:18:07.509Z,46.94
2019-05-09T18:20:37.946Z,48.06
2019-05-09T18:23:08.345Z,48.14
2019-05-09T18:25:38.035Z,48.22
2019-05-09T18:28:07.504Z,46.06
2019-05-09T18:30:38.841Z,48.87
2019-05-09T18:33:09.732Z,47.96
2019-05-09T18:35:39.263Z,47.76
2019-05-09T18:38:10.148Z,47.32
2019-05-09T18:40:39.603Z,47.39
2019-05-09T18:43:09.033Z,48.01
2019-05-09T18:45:38.479Z,48.53
2019-05-09T18:48:08.511Z,48.88
2019-05-09T18:50:38.057Z,49.24
2019-05-09T18:53:07.501Z,49.13
2019-05-09T18:55:36.972Z,49.49
2019-05-09T18:58:06.455Z,49.75
2019-05-09T19:00:35.916Z,49.65
2019-05-09T19:03:05.369Z,50.48
2019-05-09T19:05:34.834Z,50.80
2019-05-09T19:08:06.442Z,51.23
2019-05-09T19:10:35.919Z,51.91
2019-05-09T19:13:05.667Z,50.93
2019-05-09T19:15:42.495Z,51.06
2019-05-09T19:18:16.571Z,51.69
2019-05-09T19:20:50.922Z,51.49
2019-05-09T19:23:20.360Z,51.32
2019-05-09T19:25:49.810Z,51.76
2019-05-09T19:28:19.244Z,52.54
2019-05-09T19:30:48.732Z,55.10
2019-05-09T19:33:18.171Z,57.59
2019-05-09T19:35:47.661Z,58.95
2019-05-09T19:38:17.102Z,61.98
2019-05-09T19:40:46.542Z,65.32
2019-05-09T19:43:15.979Z,68.40
2019-05-09T19:45:45.447Z,70.31
2019-05-09T19:48:14.879Z,69.65
2019-05-09T19:50:44.324Z,70.37
2019-05-09T19:53:14.118Z,71.92
2019-05-09T19:55:43.621Z,71.92
2019-05-09T19:58:13.169Z,72.75
2019-05-09T20:00:42.667Z,73.99
2019-05-09T20:03:12.202Z,74.05
2019-05-09T20:05:41.649Z,74.42
2019-05-09T20:08:11.084Z,73.58
2019-05-09T20:10:48.036Z,70.99
2019-05-09T20:13:21.836Z,70.99
2019-05-09T20:15:51.277Z,69.94
2019-05-09T20:18:20.701Z,70.84
2019-05-09T20:20:50.184Z,71.60
2019-05-09T20:23:19.615Z,72.40
2019-05-09T20:25:49.182Z,73.83
2019-05-09T20:28:18.624Z,74.23
2019-05-09T20:30:48.430Z,74.38
2019-05-09T20:33:17.847Z,74.60
2019-05-09T20:35:47.286Z,73.52
2019-05-09T20:38:17.218Z,73.52
2019-05-09T20:40:46.848Z,74.26
2019-05-09T20:43:16.459Z,74.60
2019-05-09T20:45:46.109Z,71.76
2019-05-09T20:48:15.740Z,71.76
2019-05-09T20:50:45.420Z,70.38
2019-05-09T20:53:15.359Z,70.38
2019-05-09T20:55:45.881Z,70.66
2019-05-09T20:58:15.569Z,71.45
2019-05-09T21:00:45.200Z,71.67
2019-05-09T21:03:15.081Z,72.27
2019-05-09T21:05:44.710Z,72.76
2019-05-09T21:08:14.335Z,73.99
2019-05-09T21:10:43.974Z,73.99
2019-05-09T21:13:13.609Z,74.37
2019-05-09T21:15:43.236Z,74.72
2019-05-09T21:18:12.914Z,74.66
2019-05-09T21:20:42.578Z,74.48
2019-05-09T21:23:23.920Z,74.74
2019-05-09T21:25:43.638Z,75.14
2019-05-09T21:28:13.267Z,74.77
2019-05-09T21:30:43.532Z,74.93
2019-05-09T21:33:13.481Z,75.63
2019-05-09T21:35:42.924Z,75.63
2019-05-09T21:38:12.362Z,76.12
2019-05-09T21:40:42.125Z,76.31
2019-05-09T21:43:11.564Z,76.39
2019-05-09T21:45:40.992Z,76.74
2019-05-09T21:48:10.439Z,76.19
2019-05-09T21:50:39.867Z,76.19
2019-05-09T21:53:09.338Z,76.80
2019-05-09T21:55:38.777Z,76.83
2019-05-09T21:58:08.287Z,77.43
2019-05-09T22:00:38.961Z,77.71
2019-05-09T22:03:08.601Z,77.72
2019-05-09T22:05:38.129Z,77.58
2019-05-09T22:08:07.582Z,77.63
2019-05-09T22:10:37.029Z,77.51
2019-05-09T22:13:06.479Z,77.62
2019-05-09T22:15:36.025Z,77.70
2019-05-09T22:18:05.477Z,78.07
2019-05-09T22:20:34.922Z,78.08
2019-05-09T22:23:06.446Z,78.81
2019-05-09T22:25:35.811Z,78.77
2019-05-09T22:28:05.257Z,78.46
2019-05-09T22:30:34.706Z,78.47
2019-05-09T22:33:04.146Z,78.28
2019-05-09T22:35:33.855Z,78.19
2019-05-09T22:38:03.300Z,78.10
2019-05-09T22:40:33.096Z,78.27
2019-05-09T22:43:02.538Z,78.50
2019-05-09T22:45:31.986Z,78.67
2019-05-09T22:48:01.425Z,78.88
2019-05-09T22:50:30.918Z,78.12
2019-05-09T22:53:00.392Z,78.08
2019-05-09T22:55:30.073Z,77.93
2019-05-09T22:57:59.522Z,77.99
2019-05-09T23:00:28.961Z,77.72
2019-05-09T23:02:58.418Z,77.88
2019-05-09T23:05:27.851Z,77.67
2019-05-09T23:07:57.647Z,77.63
2019-05-09T23:10:27.082Z,77.45
2019-05-09T23:12:56.540Z,77.87
2019-05-09T23:15:26.213Z,77.62
2019-05-09T23:17:55.667Z,77.93
2019-05-09T23:20:43.224Z,77.68
2019-05-09T23:23:23.107Z,77.95
2019-05-09T23:25:52.533Z,77.81
2019-05-09T23:28:21.987Z,78.07
2019-05-09T23:30:53.075Z,78.41
2019-05-09T23:33:23.790Z,79.00
2019-05-09T23:35:53.481Z,78.96
2019-05-09T23:38:22.934Z,79.20
2019-05-09T23:40:52.375Z,79.13
2019-05-09T23:43:21.824Z,79.22
2019-05-09T23:45:51.285Z,79.31
2019-05-09T23:48:20.759Z,79.13
2019-05-09T23:50:50.192Z,78.68
2019-05-09T23:53:24.484Z,78.59
2019-05-09T23:56:11.913Z,78.48
2019-05-09T23:58:59.500Z,77.89
